sensor_id;sensor_type;location;lat;lon;timestamp;pressure;altitude;pressure_sealevel;temperature;humidity
50380;BME280;37474;59.468;18.040;2023-04-01T00:01:26;100797.94;;;-8.07;100.00
50380;BME280;37474;59.468;18.040;2023-04-01T00:03:55;100786.22;;;-8.40;100.00
50380;BME280;37474;59.468;18.040;2023-04-01T00:06:26;100787.75;;;-8.46;100.00
50380;BME280;37474;59.468;18.040;2023-04-01T00:08:55;100789.22;;;-8.55;100.00
50380;BME280;37474;59.468;18.040;2023-04-01T00:11:24;100791.59;;;-8.59;100.00
50380;BME280;37474;59.468;18.040;2023-04-01T00:13:56;100795.00;;;-8.57;100.00
50380;BME280;37474;59.468;18.040;2023-04-01T00:16:23;100805.75;;;-8.61;100.00
50380;BME280;37474;59.468;18.040;2023-04-01T00:18:53;100810.31;;;-8.78;100.00
50380;BME280;37474;59.468;18.040;2023-04-01T00:21:21;100816.63;;;-8.92;100.00
50380;BME280;37474;59.468;18.040;2023-04-01T00:23:49;100809.50;;;-8.14;100.00
50380;BME280;37474;59.468;18.040;2023-04-01T00:26:23;100817.09;;;-7.78;100.00
50380;BME280;37474;59.468;18.040;2023-04-01T00:28:51;100823.03;;;-7.76;100.00
50380;BME280;37474;59.468;18.040;2023-04-01T00:31:19;100813.72;;;-7.80;100.00
50380;BME280;37474;59.468;18.040;2023-04-01T00:33:51;100821.28;;;-7.78;100.00
50380;BME280;37474;59.468;18.040;2023-04-01T00:36:20;100824.66;;;-7.78;100.00
50380;BME280;37474;59.468;18.040;2023-04-01T00:38:49;100818.59;;;-7.86;100.00
50380;BME280;37474;59.468;18.040;2023-04-01T00:41:23;100817.13;;;-8.11;100.00
50380;BME280;37474;59.468;18.040;2023-04-01T00:43:52;100784.22;;;-8.18;100.00
50380;BME280;37474;59.468;18.040;2023-04-01T00:46:24;100820.25;;;-8.19;100.00
50380;BME280;37474;59.468;18.040;2023-04-01T00:48:54;100826.97;;;-8.20;100.00
50380;BME280;37474;59.468;18.040;2023-04-01T00:51:27;100820.41;;;-8.13;100.00
50380;BME280;37474;59.468;18.040;2023-04-01T00:53:59;100819.28;;;-8.58;100.00
50380;BME280;37474;59.468;18.040;2023-04-01T00:56:35;100826.69;;;-8.62;100.00
50380;BME280;37474;59.468;18.040;2023-04-01T00:59:11;100821.97;;;-8.50;100.00
50380;BME280;37474;59.468;18.040;2023-04-01T01:01:41;100824.34;;;-8.56;100.00
50380;BME280;37474;59.468;18.040;2023-04-01T01:04:25;100828.75;;;-8.49;100.00
50380;BME280;37474;59.468;18.040;2023-04-01T01:07:03;100781.16;;;-8.41;100.00
50380;BME280;37474;59.468;18.040;2023-04-01T01:09:43;100826.16;;;-7.86;100.00
50380;BME280;37474;59.468;18.040;2023-04-01T01:12:19;100826.13;;;-8.20;100.00
50380;BME280;37474;59.468;18.040;2023-04-01T01:15:00;100828.47;;;-8.27;100.00
50380;BME280;37474;59.468;18.040;2023-04-01T01:17:34;100785.94;;;-8.17;100.00
50380;BME280;37474;59.468;18.040;2023-04-01T01:20:33;100826.84;;;-7.91;100.00
50380;BME280;37474;59.468;18.040;2023-04-01T01:23:38;100827.38;;;-8.38;100.00
50380;BME280;37474;59.468;18.040;2023-04-01T01:26:46;100826.25;;;-8.47;100.00
50380;BME280;37474;59.468;18.040;2023-04-01T01:29:45;100826.75;;;-8.28;100.00
50380;BME280;37474;59.468;18.040;2023-04-01T01:32:32;100805.13;;;-7.88;100.00
50380;BME280;37474;59.468;18.040;2023-04-01T01:35:23;100830.78;;;-8.01;100.00
50380;BME280;37474;59.468;18.040;2023-04-01T01:37:56;100836.72;;;-7.99;100.00
50380;BME280;37474;59.468;18.040;2023-04-01T01:40:29;100801.28;;;-8.08;100.00
50380;BME280;37474;59.468;18.040;2023-04-01T01:43:08;100834.91;;;-7.34;100.00
50380;BME280;37474;59.468;18.040;2023-04-01T01:45:44;100833.00;;;-7.44;100.00
50380;BME280;37474;59.468;18.040;2023-04-01T01:48:16;100830.72;;;-7.71;100.00
50380;BME280;37474;59.468;18.040;2023-04-01T01:50:48;100830.13;;;-7.94;100.00
50380;BME280;37474;59.468;18.040;2023-04-01T01:53:19;100836.13;;;-7.89;100.00
50380;BME280;37474;59.468;18.040;2023-04-01T01:55:49;100836.47;;;-8.08;100.00
50380;BME280;37474;59.468;18.040;2023-04-01T01:58:23;100840.81;;;-8.03;100.00
50380;BME280;37474;59.468;18.040;2023-04-01T02:00:58;100839.72;;;-8.12;100.00
50380;BME280;37474;59.468;18.040;2023-04-01T02:03:30;100841.41;;;-8.11;100.00
50380;BME280;37474;59.468;18.040;2023-04-01T02:06:07;100844.09;;;-8.38;100.00
50380;BME280;37474;59.468;18.040;2023-04-01T02:08:39;100844.38;;;-8.59;100.00
50380;BME280;37474;59.468;18.040;2023-04-01T02:11:12;100844.06;;;-8.40;100.00
50380;BME280;37474;59.468;18.040;2023-04-01T02:13:44;100843.72;;;-8.20;100.00
50380;BME280;37474;59.468;18.040;2023-04-01T02:16:21;100813.56;;;-8.52;100.00
50380;BME280;37474;59.468;18.040;2023-04-01T02:18:53;100857.00;;;-8.56;100.00
50380;BME280;37474;59.468;18.040;2023-04-01T02:21:29;100846.59;;;-8.38;100.00
50380;BME280;37474;59.468;18.040;2023-04-01T02:24:01;100838.69;;;-8.52;100.00
50380;BME280;37474;59.468;18.040;2023-04-01T02:26:34;100852.00;;;-8.56;100.00
50380;BME280;37474;59.468;18.040;2023-04-01T02:29:02;100846.50;;;-8.43;100.00
50380;BME280;37474;59.468;18.040;2023-04-01T02:31:32;100808.78;;;-9.03;100.00
50380;BME280;37474;59.468;18.040;2023-04-01T02:34:04;100844.53;;;-8.83;100.00
50380;BME280;37474;59.468;18.040;2023-04-01T02:36:35;100851.59;;;-8.71;100.00
50380;BME280;37474;59.468;18.040;2023-04-01T02:39:06;100815.47;;;-9.03;100.00
50380;BME280;37474;59.468;18.040;2023-04-01T02:41:38;100849.81;;;-9.02;100.00
50380;BME280;37474;59.468;18.040;2023-04-01T02:44:09;100852.59;;;-9.22;100.00
50380;BME280;37474;59.468;18.040;2023-04-01T02:46:37;100846.09;;;-8.87;100.00
50380;BME280;37474;59.468;18.040;2023-04-01T02:49:07;100850.34;;;-8.84;100.00
50380;BME280;37474;59.468;18.040;2023-04-01T02:51:40;100848.75;;;-8.82;100.00
50380;BME280;37474;59.468;18.040;2023-04-01T02:54:11;100854.31;;;-8.92;100.00
50380;BME280;37474;59.468;18.040;2023-04-01T02:56:43;100852.31;;;-8.74;100.00
50380;BME280;37474;59.468;18.040;2023-04-01T02:59:12;100843.28;;;-8.67;100.00
50380;BME280;37474;59.468;18.040;2023-04-01T03:01:39;100852.16;;;-8.50;100.00
50380;BME280;37474;59.468;18.040;2023-04-01T03:04:11;100847.03;;;-8.55;100.00
50380;BME280;37474;59.468;18.040;2023-04-01T03:06:40;100847.44;;;-8.69;100.00
50380;BME280;37474;59.468;18.040;2023-04-01T03:09:08;100839.41;;;-8.25;100.00
50380;BME280;37474;59.468;18.040;2023-04-01T03:11:40;100855.06;;;-8.03;100.00
50380;BME280;37474;59.468;18.040;2023-04-01T03:14:08;100856.31;;;-8.19;100.00
50380;BME280;37474;59.468;18.040;2023-04-01T03:16:35;100866.16;;;-8.60;100.00
50380;BME280;37474;59.468;18.040;2023-04-01T03:19:07;100866.78;;;-8.95;100.00
50380;BME280;37474;59.468;18.040;2023-04-01T03:21:35;100867.19;;;-9.10;100.00
50380;BME280;37474;59.468;18.040;2023-04-01T03:24:05;100869.59;;;-8.85;100.00
50380;BME280;37474;59.468;18.040;2023-04-01T03:26:38;100873.13;;;-9.07;100.00
50380;BME280;37474;59.468;18.040;2023-04-01T03:29:06;100877.47;;;-9.29;100.00
50380;BME280;37474;59.468;18.040;2023-04-01T03:31:33;100882.72;;;-9.49;100.00
50380;BME280;37474;59.468;18.040;2023-04-01T03:34:06;100882.50;;;-9.55;100.00
50380;BME280;37474;59.468;18.040;2023-04-01T03:36:33;100879.75;;;-9.63;100.00
50380;BME280;37474;59.468;18.040;2023-04-01T03:39:01;100882.97;;;-9.67;100.00
50380;BME280;37474;59.468;18.040;2023-04-01T03:41:35;100885.63;;;-9.62;100.00
50380;BME280;37474;59.468;18.040;2023-04-01T03:44:03;100890.38;;;-9.71;100.00
50380;BME280;37474;59.468;18.040;2023-04-01T03:46:31;100884.91;;;-9.84;100.00
50380;BME280;37474;59.468;18.040;2023-04-01T03:49:06;100887.66;;;-10.01;100.00
50380;BME280;37474;59.468;18.040;2023-04-01T03:51:37;100894.22;;;-9.81;100.00
50380;BME280;37474;59.468;18.040;2023-04-01T03:54:10;100897.75;;;-10.00;100.00
50380;BME280;37474;59.468;18.040;2023-04-01T03:56:39;100891.66;;;-10.06;100.00
50380;BME280;37474;59.468;18.040;2023-04-01T03:59:07;100900.31;;;-10.22;100.00
50380;BME280;37474;59.468;18.040;2023-04-01T04:01:39;100903.19;;;-9.88;100.00
50380;BME280;37474;59.468;18.040;2023-04-01T04:04:07;100847.94;;;-9.89;100.00
50380;BME280;37474;59.468;18.040;2023-04-01T04:06:35;100888.56;;;-9.99;100.00
50380;BME280;37474;59.468;18.040;2023-04-01T04:09:07;100909.19;;;-10.08;100.00
50380;BME280;37474;59.468;18.040;2023-04-01T04:11:36;100903.84;;;-9.93;100.00
50380;BME280;37474;59.468;18.040;2023-04-01T04:14:05;100914.31;;;-9.79;100.00
50380;BME280;37474;59.468;18.040;2023-04-01T04:16:36;100913.63;;;-9.99;100.00
50380;BME280;37474;59.468;18.040;2023-04-01T04:19:05;100905.66;;;-10.13;100.00
50380;BME280;37474;59.468;18.040;2023-04-01T04:21:39;100881.31;;;-10.41;100.00
50380;BME280;37474;59.468;18.040;2023-04-01T04:24:11;100923.41;;;-10.32;100.00
50380;BME280;37474;59.468;18.040;2023-04-01T04:26:42;100923.31;;;-10.10;100.00
50380;BME280;37474;59.468;18.040;2023-04-01T04:29:11;100920.47;;;-9.95;100.00
50380;BME280;37474;59.468;18.040;2023-04-01T04:31:43;100914.88;;;-10.12;100.00
50380;BME280;37474;59.468;18.040;2023-04-01T04:34:11;100921.44;;;-9.92;100.00
50380;BME280;37474;59.468;18.040;2023-04-01T04:36:41;100881.31;;;-10.41;100.00
50380;BME280;37474;59.468;18.040;2023-04-01T04:39:13;100925.59;;;-10.16;100.00
50380;BME280;37474;59.468;18.040;2023-04-01T04:41:42;100941.06;;;-9.80;100.00
50380;BME280;37474;59.468;18.040;2023-04-01T04:44:12;100920.19;;;-9.79;100.00
50380;BME280;37474;59.468;18.040;2023-04-01T04:46:44;100938.63;;;-9.53;100.00
50380;BME280;37474;59.468;18.040;2023-04-01T04:49:12;100913.97;;;-9.90;100.00
50380;BME280;37474;59.468;18.040;2023-04-01T04:51:40;100952.50;;;-9.88;100.00
50380;BME280;37474;59.468;18.040;2023-04-01T04:54:14;100948.56;;;-9.56;100.00
50380;BME280;37474;59.468;18.040;2023-04-01T04:56:42;100952.19;;;-9.48;100.00
50380;BME280;37474;59.468;18.040;2023-04-01T04:59:09;100958.16;;;-8.92;100.00
50380;BME280;37474;59.468;18.040;2023-04-01T05:01:44;100955.34;;;-9.01;100.00
50380;BME280;37474;59.468;18.040;2023-04-01T05:04:12;100964.44;;;-8.78;100.00
50380;BME280;37474;59.468;18.040;2023-04-01T05:06:40;100961.19;;;-8.46;100.00
50380;BME280;37474;59.468;18.040;2023-04-01T05:09:14;100958.41;;;-7.64;100.00
50380;BME280;37474;59.468;18.040;2023-04-01T05:11:44;100966.72;;;-7.66;100.00
50380;BME280;37474;59.468;18.040;2023-04-01T05:14:15;100964.75;;;-7.45;100.00
50380;BME280;37474;59.468;18.040;2023-04-01T05:16:44;100979.56;;;-7.24;100.00
50380;BME280;37474;59.468;18.040;2023-04-01T05:19:12;100976.06;;;-6.95;100.00
50380;BME280;37474;59.468;18.040;2023-04-01T05:21:44;100982.19;;;-6.85;100.00
50380;BME280;37474;59.468;18.040;2023-04-01T05:24:12;100982.75;;;-6.60;100.00
50380;BME280;37474;59.468;18.040;2023-04-01T05:26:40;100993.13;;;-6.48;100.00
50380;BME280;37474;59.468;18.040;2023-04-01T05:29:11;100958.69;;;-6.45;100.00
50380;BME280;37474;59.468;18.040;2023-04-01T05:31:39;100985.19;;;-6.26;100.00
50380;BME280;37474;59.468;18.040;2023-04-01T05:34:08;100994.03;;;-6.04;100.00
50380;BME280;37474;59.468;18.040;2023-04-01T05:36:42;101003.63;;;-5.86;100.00
50380;BME280;37474;59.468;18.040;2023-04-01T05:39:10;100998.69;;;-5.78;100.00
50380;BME280;37474;59.468;18.040;2023-04-01T05:41:38;100980.91;;;-5.86;100.00
50380;BME280;37474;59.468;18.040;2023-04-01T05:44:11;101004.91;;;-5.63;100.00
50380;BME280;37474;59.468;18.040;2023-04-01T05:46:39;100971.44;;;-5.51;100.00
50380;BME280;37474;59.468;18.040;2023-04-01T05:49:08;100998.75;;;-5.32;100.00
50380;BME280;37474;59.468;18.040;2023-04-01T05:51:43;101007.16;;;-5.33;100.00
50380;BME280;37474;59.468;18.040;2023-04-01T05:54:10;101010.06;;;-5.10;100.00
50380;BME280;37474;59.468;18.040;2023-04-01T05:56:38;101013.63;;;-4.98;100.00
50380;BME280;37474;59.468;18.040;2023-04-01T05:59:11;101001.00;;;-4.97;100.00
50380;BME280;37474;59.468;18.040;2023-04-01T06:01:39;101008.91;;;-4.77;100.00
50380;BME280;37474;59.468;18.040;2023-04-01T06:04:13;101020.72;;;-4.76;100.00
50380;BME280;37474;59.468;18.040;2023-04-01T06:06:44;101019.06;;;-4.72;100.00
50380;BME280;37474;59.468;18.040;2023-04-01T06:09:15;101004.75;;;-4.72;100.00
50380;BME280;37474;59.468;18.040;2023-04-01T06:11:55;101014.31;;;-4.53;100.00
50380;BME280;37474;59.468;18.040;2023-04-01T06:14:36;101021.81;;;-4.59;100.00
50380;BME280;37474;59.468;18.040;2023-04-01T06:17:19;101011.78;;;-4.53;100.00
50380;BME280;37474;59.468;18.040;2023-04-01T06:20:00;101018.88;;;-4.29;100.00
50380;BME280;37474;59.468;18.040;2023-04-01T06:22:45;101012.09;;;-4.31;100.00
50380;BME280;37474;59.468;18.040;2023-04-01T06:25:31;101021.66;;;-4.10;100.00
50380;BME280;37474;59.468;18.040;2023-04-01T06:31:03;101027.69;;;-4.01;100.00
50380;BME280;37474;59.468;18.040;2023-04-01T06:33:52;101036.38;;;-3.79;100.00
50380;BME280;37474;59.468;18.040;2023-04-01T06:36:41;101041.59;;;-3.66;100.00
50380;BME280;37474;59.468;18.040;2023-04-01T06:39:26;101031.44;;;-3.71;100.00
50380;BME280;37474;59.468;18.040;2023-04-01T06:42:13;101030.81;;;-3.50;100.00
50380;BME280;37474;59.468;18.040;2023-04-01T06:44:51;101045.31;;;-3.38;100.00
50380;BME280;37474;59.468;18.040;2023-04-01T06:47:29;101052.03;;;-3.40;100.00
50380;BME280;37474;59.468;18.040;2023-04-01T06:50:11;101050.50;;;-3.26;100.00
50380;BME280;37474;59.468;18.040;2023-04-01T06:52:51;101047.06;;;-3.33;100.00
50380;BME280;37474;59.468;18.040;2023-04-01T06:55:28;101048.97;;;-3.09;100.00
50380;BME280;37474;59.468;18.040;2023-04-01T06:58:01;101052.56;;;-2.88;100.00
50380;BME280;37474;59.468;18.040;2023-04-01T07:00:32;101059.47;;;-2.69;100.00
50380;BME280;37474;59.468;18.040;2023-04-01T07:03:10;101062.00;;;-2.71;100.00
50380;BME280;37474;59.468;18.040;2023-04-01T07:05:43;101065.44;;;-2.64;100.00
50380;BME280;37474;59.468;18.040;2023-04-01T07:08:16;101073.16;;;-2.49;100.00
50380;BME280;37474;59.468;18.040;2023-04-01T07:10:48;101069.03;;;-2.37;99.82
50380;BME280;37474;59.468;18.040;2023-04-01T07:13:22;101070.94;;;-1.98;99.23
50380;BME280;37474;59.468;18.040;2023-04-01T07:15:57;101077.75;;;-1.90;96.43
50380;BME280;37474;59.468;18.040;2023-04-01T07:18:32;101039.50;;;-2.22;97.24
50380;BME280;37474;59.468;18.040;2023-04-01T07:21:04;101049.81;;;-1.93;97.88
50380;BME280;37474;59.468;18.040;2023-04-01T07:23:40;101040.47;;;-1.89;95.03
50380;BME280;37474;59.468;18.040;2023-04-01T07:26:17;101063.50;;;-1.51;94.98
50380;BME280;37474;59.468;18.040;2023-04-01T07:28:53;101060.94;;;-1.62;94.36
50380;BME280;37474;59.468;18.040;2023-04-01T07:34:33;101091.59;;;-1.22;94.38
50380;BME280;37474;59.468;18.040;2023-04-01T07:37:08;101098.41;;;-1.10;92.76
50380;BME280;37474;59.468;18.040;2023-04-01T07:39:45;101106.03;;;-1.01;93.00
50380;BME280;37474;59.468;18.040;2023-04-01T07:42:24;101058.50;;;-1.19;92.89
50380;BME280;37474;59.468;18.040;2023-04-01T07:45:03;101096.69;;;-1.00;94.50
50380;BME280;37474;59.468;18.040;2023-04-01T07:47:44;101102.63;;;-1.01;94.20
50380;BME280;37474;59.468;18.040;2023-04-01T07:50:22;101055.13;;;-1.06;93.35
50380;BME280;37474;59.468;18.040;2023-04-01T07:53:00;101103.56;;;-0.49;91.50
50380;BME280;37474;59.468;18.040;2023-04-01T07:55:41;101073.81;;;-0.41;89.52
50380;BME280;37474;59.468;18.040;2023-04-01T07:58:19;101103.50;;;-0.17;90.94
50380;BME280;37474;59.468;18.040;2023-04-01T08:00:58;101114.56;;;-0.21;91.27
50380;BME280;37474;59.468;18.040;2023-04-01T08:03:35;101113.59;;;0.31;88.94
50380;BME280;37474;59.468;18.040;2023-04-01T08:06:14;101109.41;;;0.14;87.78
50380;BME280;37474;59.468;18.040;2023-04-01T08:08:56;101108.44;;;0.50;87.38
50380;BME280;37474;59.468;18.040;2023-04-01T08:11:41;101083.88;;;0.30;86.37
50380;BME280;37474;59.468;18.040;2023-04-01T08:14:20;101110.03;;;0.70;85.60
50380;BME280;37474;59.468;18.040;2023-04-01T08:16:59;101106.53;;;0.91;82.25
50380;BME280;37474;59.468;18.040;2023-04-01T08:19:45;101114.84;;;1.20;79.45
50380;BME280;37474;59.468;18.040;2023-04-01T08:22:22;101071.59;;;0.99;77.46
50380;BME280;37474;59.468;18.040;2023-04-01T08:24:56;101113.13;;;1.25;76.45
50380;BME280;37474;59.468;18.040;2023-04-01T08:27:36;101111.44;;;1.21;74.46
50380;BME280;37474;59.468;18.040;2023-04-01T08:30:17;101116.50;;;1.26;75.16
50380;BME280;37474;59.468;18.040;2023-04-01T08:32:53;101102.94;;;1.19;72.22
50380;BME280;37474;59.468;18.040;2023-04-01T08:35:27;101121.66;;;1.20;74.41
50380;BME280;37474;59.468;18.040;2023-04-01T08:38:05;101124.94;;;1.39;72.97
50380;BME280;37474;59.468;18.040;2023-04-01T08:40:57;101121.41;;;1.56;70.49
50380;BME280;37474;59.468;18.040;2023-04-01T08:43:54;101129.56;;;1.94;69.15
50380;BME280;37474;59.468;18.040;2023-04-01T08:46:47;101128.75;;;1.95;67.41
50380;BME280;37474;59.468;18.040;2023-04-01T08:49:35;101126.63;;;2.33;66.16
50380;BME280;37474;59.468;18.040;2023-04-01T08:52:26;101125.00;;;2.25;65.95
50380;BME280;37474;59.468;18.040;2023-04-01T09:00:39;101135.88;;;2.45;67.51
50380;BME280;37474;59.468;18.040;2023-04-01T09:03:28;101140.09;;;2.48;64.61
50380;BME280;37474;59.468;18.040;2023-04-01T09:06:31;101144.47;;;2.40;64.49
50380;BME280;37474;59.468;18.040;2023-04-01T09:09:21;101137.44;;;2.55;63.85
50380;BME280;37474;59.468;18.040;2023-04-01T09:12:11;101131.25;;;2.75;61.39
50380;BME280;37474;59.468;18.040;2023-04-01T09:15:05;101098.34;;;2.46;61.90
50380;BME280;37474;59.468;18.040;2023-04-01T09:17:55;101147.19;;;2.95;60.70
50380;BME280;37474;59.468;18.040;2023-04-01T09:20:42;101152.94;;;3.11;60.67
50380;BME280;37474;59.468;18.040;2023-04-01T09:23:46;101152.44;;;2.86;62.68
50380;BME280;37474;59.468;18.040;2023-04-01T09:26:39;101161.34;;;3.22;60.21
50380;BME280;37474;59.468;18.040;2023-04-01T09:29:24;101152.38;;;3.51;59.39
50380;BME280;37474;59.468;18.040;2023-04-01T09:32:20;101155.09;;;3.38;59.07
50380;BME280;37474;59.468;18.040;2023-04-01T09:35:07;101161.31;;;3.24;60.24
50380;BME280;37474;59.468;18.040;2023-04-01T09:37:53;101154.09;;;3.50;57.69
50380;BME280;37474;59.468;18.040;2023-04-01T09:40:31;101161.63;;;3.59;58.72
50380;BME280;37474;59.468;18.040;2023-04-01T09:43:16;101161.16;;;3.87;57.02
50380;BME280;37474;59.468;18.040;2023-04-01T09:45:58;101118.00;;;3.61;58.59
50380;BME280;37474;59.468;18.040;2023-04-01T09:48:39;101166.81;;;4.07;60.02
50380;BME280;37474;59.468;18.040;2023-04-01T09:51:22;101162.78;;;4.40;55.96
50380;BME280;37474;59.468;18.040;2023-04-01T09:54:04;101166.28;;;4.36;54.81
50380;BME280;37474;59.468;18.040;2023-04-01T09:59:46;101160.97;;;4.44;53.85
50380;BME280;37474;59.468;18.040;2023-04-01T10:02:42;101171.59;;;4.70;54.51
50380;BME280;37474;59.468;18.040;2023-04-01T10:12:08;101172.16;;;4.41;54.56
50380;BME280;37474;59.468;18.040;2023-04-01T10:15:32;101172.78;;;4.96;53.24
50380;BME280;37474;59.468;18.040;2023-04-01T10:18:29;101178.22;;;4.37;52.69
50380;BME280;37474;59.468;18.040;2023-04-01T10:21:35;101177.81;;;4.59;53.02
50380;BME280;37474;59.468;18.040;2023-04-01T10:30:07;101176.13;;;4.99;49.70
50380;BME280;37474;59.468;18.040;2023-04-01T10:36:26;101195.00;;;5.00;48.53
50380;BME280;37474;59.468;18.040;2023-04-01T10:42:40;101188.31;;;5.30;49.67
50380;BME280;37474;59.468;18.040;2023-04-01T10:45:45;101188.38;;;5.27;48.27
50380;BME280;37474;59.468;18.040;2023-04-01T10:48:35;101174.66;;;5.28;47.79
50380;BME280;37474;59.468;18.040;2023-04-01T10:54:40;101192.09;;;5.14;46.86
50380;BME280;37474;59.468;18.040;2023-04-01T10:57:33;101192.91;;;5.16;46.45
50380;BME280;37474;59.468;18.040;2023-04-01T11:00:35;101201.72;;;5.44;46.79
50380;BME280;37474;59.468;18.040;2023-04-01T11:09:49;101200.84;;;5.81;45.33
50380;BME280;37474;59.468;18.040;2023-04-01T11:12:48;101197.00;;;5.63;44.71
50380;BME280;37474;59.468;18.040;2023-04-01T11:15:39;101207.78;;;5.79;45.03
50380;BME280;37474;59.468;18.040;2023-04-01T11:18:47;101194.97;;;5.40;43.85
50380;BME280;37474;59.468;18.040;2023-04-01T11:27:46;101208.69;;;5.39;45.21
50380;BME280;37474;59.468;18.040;2023-04-01T11:30:25;101191.81;;;5.27;42.24
50380;BME280;37474;59.468;18.040;2023-04-01T11:33:02;101151.13;;;5.08;43.56
50380;BME280;37474;59.468;18.040;2023-04-01T11:35:48;101217.13;;;5.81;42.64
50380;BME280;37474;59.468;18.040;2023-04-01T11:38:31;101225.63;;;5.85;42.74
50380;BME280;37474;59.468;18.040;2023-04-01T11:41:15;101221.78;;;5.66;44.17
50380;BME280;37474;59.468;18.040;2023-04-01T11:44:03;101237.72;;;5.81;43.87
50380;BME280;37474;59.468;18.040;2023-04-01T11:46:41;101228.34;;;5.79;44.51
50380;BME280;37474;59.468;18.040;2023-04-01T11:49:24;101225.03;;;5.74;42.96
50380;BME280;37474;59.468;18.040;2023-04-01T11:52:19;101183.59;;;5.50;43.40
50380;BME280;37474;59.468;18.040;2023-04-01T11:55:16;101228.03;;;6.27;45.62
50380;BME280;37474;59.468;18.040;2023-04-01T11:57:57;101244.16;;;6.01;43.68
50380;BME280;37474;59.468;18.040;2023-04-01T12:00:59;101239.84;;;6.01;41.17
50380;BME280;37474;59.468;18.040;2023-04-01T12:06:34;101252.31;;;5.42;43.87
50380;BME280;37474;59.468;18.040;2023-04-01T12:09:12;101252.41;;;5.39;44.11
50380;BME280;37474;59.468;18.040;2023-04-01T12:11:55;101224.03;;;5.42;43.29
50380;BME280;37474;59.468;18.040;2023-04-01T12:14:36;101247.09;;;5.84;45.39
50380;BME280;37474;59.468;18.040;2023-04-01T12:17:25;101246.75;;;5.99;44.79
50380;BME280;37474;59.468;18.040;2023-04-01T12:20:04;101261.91;;;5.74;45.84
50380;BME280;37474;59.468;18.040;2023-04-01T12:22:49;101256.94;;;5.67;45.01
50380;BME280;37474;59.468;18.040;2023-04-01T12:25:35;101266.53;;;5.59;45.81
50380;BME280;37474;59.468;18.040;2023-04-01T12:28:18;101269.06;;;5.62;45.99
50380;BME280;37474;59.468;18.040;2023-04-01T12:30:57;101275.41;;;5.03;46.52
50380;BME280;37474;59.468;18.040;2023-04-01T12:33:41;101264.31;;;5.43;47.48
50380;BME280;37474;59.468;18.040;2023-04-01T12:36:19;101273.59;;;5.50;47.33
50380;BME280;37474;59.468;18.040;2023-04-01T12:39:13;101270.28;;;5.03;48.22
50380;BME280;37474;59.468;18.040;2023-04-01T12:41:53;101280.56;;;5.03;47.08
50380;BME280;37474;59.468;18.040;2023-04-01T12:44:46;101278.25;;;5.33;48.39
50380;BME280;37474;59.468;18.040;2023-04-01T12:50:36;101286.44;;;5.89;47.26
50380;BME280;37474;59.468;18.040;2023-04-01T12:53:27;101265.63;;;5.21;47.76
50380;BME280;37474;59.468;18.040;2023-04-01T12:56:02;101298.34;;;5.56;48.23
50380;BME280;37474;59.468;18.040;2023-04-01T12:58:53;101299.22;;;5.53;49.15
50380;BME280;37474;59.468;18.040;2023-04-01T13:02:03;101315.22;;;5.26;46.50
50380;BME280;37474;59.468;18.040;2023-04-01T13:04:44;101314.13;;;5.39;46.76
50380;BME280;37474;59.468;18.040;2023-04-01T13:07:26;101318.50;;;5.33;46.19
50380;BME280;37474;59.468;18.040;2023-04-01T13:10:06;101319.13;;;5.45;46.41
50380;BME280;37474;59.468;18.040;2023-04-01T13:12:56;101321.00;;;5.37;48.49
50380;BME280;37474;59.468;18.040;2023-04-01T13:15:34;101318.41;;;5.39;48.55
50380;BME280;37474;59.468;18.040;2023-04-01T13:18:16;101328.13;;;5.24;47.24
50380;BME280;37474;59.468;18.040;2023-04-01T13:20:55;101328.78;;;4.91;47.16
50380;BME280;37474;59.468;18.040;2023-04-01T13:23:40;101331.88;;;4.62;46.38
50380;BME280;37474;59.468;18.040;2023-04-01T13:26:18;101337.50;;;4.81;46.00
50380;BME280;37474;59.468;18.040;2023-04-01T13:28:55;101332.19;;;4.91;45.00
50380;BME280;37474;59.468;18.040;2023-04-01T13:31:47;101354.31;;;4.98;45.61
50380;BME280;37474;59.468;18.040;2023-04-01T13:34:25;101355.31;;;4.91;46.09
50380;BME280;37474;59.468;18.040;2023-04-01T13:40:00;101360.41;;;4.93;43.51
50380;BME280;37474;59.468;18.040;2023-04-01T13:42:34;101370.88;;;4.84;43.59
50380;BME280;37474;59.468;18.040;2023-04-01T13:45:15;101357.63;;;5.48;43.20
50380;BME280;37474;59.468;18.040;2023-04-01T13:48:05;101379.53;;;5.68;42.25
50380;BME280;37474;59.468;18.040;2023-04-01T13:51:05;101368.31;;;5.28;43.85
50380;BME280;37474;59.468;18.040;2023-04-01T13:53:44;101368.97;;;5.40;44.39
50380;BME280;37474;59.468;18.040;2023-04-01T13:56:29;101369.44;;;6.00;43.17
50380;BME280;37474;59.468;18.040;2023-04-01T13:59:14;101372.63;;;6.10;43.03
50380;BME280;37474;59.468;18.040;2023-04-01T14:01:59;101378.06;;;5.56;44.29
50380;BME280;37474;59.468;18.040;2023-04-01T14:04:50;101374.44;;;5.21;44.69
50380;BME280;37474;59.468;18.040;2023-04-01T14:07:41;101381.63;;;5.06;45.07
50380;BME280;37474;59.468;18.040;2023-04-01T14:10:20;101377.31;;;5.06;45.88
50380;BME280;37474;59.468;18.040;2023-04-01T14:12:58;101346.28;;;4.69;43.41
50380;BME280;37474;59.468;18.040;2023-04-01T14:15:38;101386.09;;;4.93;42.43
50380;BME280;37474;59.468;18.040;2023-04-01T14:18:27;101392.22;;;4.86;43.35
50380;BME280;37474;59.468;18.040;2023-04-01T14:21:23;101386.50;;;4.70;43.25
50380;BME280;37474;59.468;18.040;2023-04-01T14:24:12;101396.00;;;5.14;44.03
50380;BME280;37474;59.468;18.040;2023-04-01T14:27:09;101363.31;;;4.74;45.31
50380;BME280;37474;59.468;18.040;2023-04-01T14:29:56;101394.28;;;5.15;45.62
50380;BME280;37474;59.468;18.040;2023-04-01T14:32:33;101413.09;;;5.17;41.87
50380;BME280;37474;59.468;18.040;2023-04-01T14:35:30;101399.78;;;4.93;43.36